createdAt,value
2022-09-02T00:01:03.532Z,1.52
2022-09-02T00:03:34.427Z,1.40
2022-09-02T00:06:02.927Z,1.52
2022-09-02T00:08:31.942Z,1.75
2022-09-02T00:11:01.039Z,1.67
2022-09-02T00:13:28.885Z,1.45
2022-09-02T00:15:56.026Z,1.58
2022-09-02T00:18:24.913Z,1.48
2022-09-02T00:20:51.930Z,1.70
2022-09-02T00:23:18.914Z,1.77
2022-09-02T00:25:45.843Z,1.20
2022-09-02T00:28:15.118Z,1.42
2022-09-02T00:30:42.490Z,1.48
2022-09-02T00:33:10.958Z,1.65
2022-09-02T00:35:37.863Z,1.60
2022-09-02T00:38:05.725Z,1.35
2022-09-02T00:40:33.692Z,1.48
2022-09-02T00:43:00.998Z,1.63
2022-09-02T00:45:27.721Z,1.45
2022-09-02T00:47:54.437Z,1.63
2022-09-02T00:50:26.494Z,1.58
2022-09-02T00:53:15.567Z,1.45
2022-09-02T00:55:46.278Z,1.50
2022-09-02T00:58:34.802Z,1.50
2022-09-02T01:01:01.491Z,1.40
2022-09-02T01:03:31.098Z,1.30
2022-09-02T01:05:59.209Z,1.60
2022-09-02T01:08:32.698Z,1.50
2022-09-02T01:11:00.768Z,1.67
2022-09-02T01:13:31.341Z,1.30
2022-09-02T01:16:10.674Z,1.30
2022-09-02T01:18:38.690Z,1.30
2022-09-02T01:21:06.236Z,1.50
2022-09-02T01:23:34.804Z,1.60
2022-09-02T01:26:01.832Z,1.50
2022-09-02T01:28:28.468Z,1.30
2022-09-02T01:30:55.275Z,1.50
2022-09-02T01:33:25.436Z,1.38
2022-09-02T01:35:53.446Z,1.20
2022-09-02T01:38:21.013Z,1.50
2022-09-02T01:40:48.104Z,1.58
2022-09-02T01:43:19.081Z,1.40
2022-09-02T01:45:47.318Z,1.48
2022-09-02T01:48:21.260Z,1.58
2022-09-02T01:50:51.843Z,1.70
2022-09-02T01:53:18.959Z,1.80
2022-09-02T01:55:45.686Z,1.30
2022-09-02T01:58:12.374Z,1.75
2022-09-02T02:00:39.458Z,1.58
2022-09-02T02:03:06.194Z,1.52
2022-09-02T02:05:33.309Z,1.55
2022-09-02T02:07:59.963Z,1.30
2022-09-02T02:10:26.733Z,1.83
2022-09-02T02:12:53.509Z,1.50
2022-09-02T02:15:21.046Z,1.60
2022-09-02T02:17:47.969Z,1.67
2022-09-02T02:20:19.438Z,1.50
2022-09-02T02:22:47.217Z,1.60
2022-09-02T02:25:15.205Z,1.42
2022-09-02T02:27:43.691Z,1.80
2022-09-02T02:30:11.818Z,1.60
2022-09-02T02:32:38.502Z,1.52
2022-09-02T02:35:05.955Z,1.98
2022-09-02T02:37:32.807Z,1.60
2022-09-02T02:39:59.409Z,1.67
2022-09-02T02:42:26.142Z,1.70
2022-09-02T02:44:52.702Z,1.77
2022-09-02T02:47:19.342Z,1.45
2022-09-02T02:49:45.979Z,1.80
2022-09-02T02:52:13.220Z,2.10
2022-09-02T02:54:41.054Z,1.90
2022-09-02T02:57:08.805Z,2.00
2022-09-02T02:59:36.784Z,1.95
2022-09-02T03:02:04.870Z,2.00
2022-09-02T03:04:32.885Z,1.83
2022-09-02T03:06:59.513Z,1.80
2022-09-02T03:09:26.106Z,1.85
2022-09-02T03:11:52.674Z,1.70
2022-09-02T03:14:19.305Z,1.92
2022-09-02T03:16:50.133Z,1.90
2022-09-02T03:19:16.821Z,1.75
2022-09-02T03:21:43.623Z,1.85
2022-09-02T03:24:12.218Z,1.83
2022-09-02T03:26:41.546Z,1.55
2022-09-02T03:29:08.306Z,1.92
2022-09-02T03:31:35.802Z,2.05
2022-09-02T03:34:03.469Z,2.15
2022-09-02T03:36:33.034Z,2.15
2022-09-02T03:39:00.687Z,2.20
2022-09-02T03:41:27.301Z,2.47
2022-09-02T03:43:53.925Z,2.42
2022-09-02T03:46:20.569Z,2.70
2022-09-02T03:48:48.114Z,2.50
2022-09-02T03:51:15.030Z,2.20
2022-09-02T03:53:41.625Z,2.55
2022-09-02T03:56:13.089Z,2.38
2022-09-02T03:58:40.215Z,2.65
2022-09-02T04:01:08.262Z,2.40
2022-09-02T04:03:34.871Z,2.35
2022-09-02T04:06:01.424Z,2.30
2022-09-02T04:08:28.073Z,2.33
2022-09-02T04:10:56.174Z,1.98
2022-09-02T04:13:23.545Z,2.00
2022-09-02T04:15:50.377Z,1.63
2022-09-02T04:18:17.798Z,2.03
2022-09-02T04:20:45.447Z,2.20
2022-09-02T04:23:12.052Z,1.90
2022-09-02T04:25:43.212Z,1.75
2022-09-02T04:28:10.322Z,1.98
2022-09-02T04:30:41.457Z,2.20
2022-09-02T04:33:08.372Z,2.03
2022-09-02T04:35:35.886Z,2.15
2022-09-02T04:38:02.958Z,1.88
2022-09-02T04:40:29.750Z,2.05
2022-09-02T04:42:56.435Z,1.85
2022-09-02T04:45:26.557Z,2.17
2022-09-02T04:47:55.777Z,2.35
2022-09-02T04:50:22.377Z,2.30
2022-09-02T04:52:48.933Z,2.40
2022-09-02T04:55:15.681Z,2.40
2022-09-02T04:57:42.444Z,2.15
2022-09-02T05:00:09.854Z,1.90
2022-09-02T05:02:36.458Z,2.25
2022-09-02T05:05:03.583Z,2.10
2022-09-02T05:07:31.111Z,1.75
2022-09-02T05:10:02.694Z,1.88
2022-09-02T05:12:32.022Z,1.83
2022-09-02T05:15:01.006Z,1.75
2022-09-02T05:17:31.762Z,1.55
2022-09-02T05:19:58.959Z,1.80
2022-09-02T05:22:26.130Z,2.10
2022-09-02T05:24:52.757Z,1.55
2022-09-02T05:27:20.334Z,1.60
2022-09-02T05:29:48.033Z,1.98
2022-09-02T05:32:14.821Z,1.60
2022-09-02T05:34:41.473Z,1.40
2022-09-02T05:37:08.113Z,1.60
2022-09-02T05:39:35.258Z,1.95
2022-09-02T05:42:01.895Z,1.80
2022-09-02T05:44:31.097Z,1.60
2022-09-02T05:46:57.635Z,1.50
2022-09-02T05:49:24.218Z,1.17
2022-09-02T05:51:56.244Z,1.42
2022-09-02T05:54:29.973Z,1.30
2022-09-02T05:57:00.262Z,1.40
2022-09-02T05:59:29.107Z,1.70
2022-09-02T06:01:56.526Z,1.60
2022-09-02T06:04:24.107Z,1.25
2022-09-02T06:06:51.629Z,1.40
2022-09-02T06:09:21.775Z,1.10
2022-09-02T06:11:51.612Z,1.20
2022-09-02T06:14:21.815Z,1.50
2022-09-02T06:16:50.401Z,1.40
2022-09-02T06:19:20.209Z,1.40
2022-09-02T06:21:48.358Z,1.40
2022-09-02T06:24:15.357Z,1.33
2022-09-02T06:26:42.385Z,1.30
2022-09-02T06:29:10.397Z,1.30
2022-09-02T06:31:40.013Z,1.40
2022-09-02T06:34:06.863Z,1.60
2022-09-02T06:36:33.499Z,1.45
2022-09-02T06:39:01.109Z,1.45
2022-09-02T06:41:30.391Z,1.40
2022-09-02T06:44:00.099Z,1.20
2022-09-02T06:46:33.190Z,1.40
2022-09-02T06:49:00.197Z,1.60
2022-09-02T06:51:30.276Z,1.40
2022-09-02T06:53:57.292Z,1.40
2022-09-02T06:56:24.354Z,1.58
2022-09-02T06:58:50.992Z,1.30
2022-09-02T07:01:26.806Z,1.77
2022-09-02T07:04:12.445Z,1.33
2022-09-02T07:09:10.276Z,1.60
2022-09-02T07:11:37.663Z,1.38
2022-09-02T07:14:05.534Z,1.38
2022-09-02T07:16:42.283Z,1.70
2022-09-02T07:19:14.134Z,1.90
2022-09-02T07:21:43.198Z,1.65
2022-09-02T07:24:12.016Z,1.50
2022-09-02T07:26:39.121Z,1.88
2022-09-02T07:29:08.692Z,1.63
2022-09-02T07:31:37.745Z,1.45
2022-09-02T07:34:06.523Z,1.30
2022-09-02T07:36:34.940Z,1.45
2022-09-02T07:39:03.227Z,1.50
2022-09-02T07:41:30.079Z,1.45
2022-09-02T07:43:59.620Z,1.60
2022-09-02T07:46:29.323Z,1.70
2022-09-02T07:48:56.929Z,1.60
2022-09-02T07:51:23.656Z,1.77
2022-09-02T07:53:57.458Z,1.60
2022-09-02T07:56:24.189Z,1.60
2022-09-02T07:58:50.895Z,1.42
2022-09-02T08:01:23.482Z,1.45
2022-09-02T08:03:51.026Z,1.55
2022-09-02T08:06:27.739Z,1.50
2022-09-02T08:09:03.648Z,1.27
2022-09-02T08:11:31.503Z,1.42
2022-09-02T08:13:59.935Z,1.27
2022-09-02T08:16:26.989Z,1.25
2022-09-02T08:18:53.834Z,1.23
2022-09-02T08:21:20.634Z,1.35
2022-09-02T08:23:51.198Z,1.30
2022-09-02T08:26:18.761Z,1.40
2022-09-02T08:28:45.592Z,1.10
2022-09-02T08:31:12.210Z,1.20
2022-09-02T08:33:38.833Z,1.08
2022-09-02T08:36:11.706Z,1.38
2022-09-02T08:38:38.587Z,1.20
2022-09-02T08:41:33.599Z,1.25
2022-09-02T08:44:01.741Z,1.00
2022-09-02T08:46:31.582Z,1.15
2022-09-02T08:49:13.917Z,1.40
2022-09-02T08:51:47.611Z,1.15
2022-09-02T08:54:22.119Z,1.27
2022-09-02T08:56:51.520Z,1.00
2022-09-02T08:59:25.285Z,1.27
2022-09-02T09:02:17.903Z,1.30
2022-09-02T09:05:00.974Z,1.00
2022-09-02T09:07:44.181Z,1.00
2022-09-02T09:10:21.683Z,1.20
2022-09-02T09:13:04.434Z,1.30
2022-09-02T09:15:40.184Z,1.30
2022-09-02T09:18:15.937Z,1.55
2022-09-02T09:20:43.625Z,1.25
2022-09-02T09:23:28.135Z,1.25
2022-09-02T09:26:05.905Z,1.20
2022-09-02T09:28:40.481Z,1.35
2022-09-02T09:31:11.609Z,1.23
2022-09-02T09:33:38.734Z,1.27
2022-09-02T09:36:05.701Z,1.20
2022-09-02T09:38:35.955Z,0.90
2022-09-02T09:41:24.565Z,1.15
2022-09-02T09:43:51.236Z,1.13
2022-09-02T09:46:34.082Z,1.20
2022-09-02T09:49:00.758Z,1.20
2022-09-02T09:51:27.334Z,1.00
2022-09-02T09:54:15.753Z,1.10
2022-09-02T09:56:42.551Z,1.20
2022-09-02T09:59:43.031Z,1.02
2022-09-02T10:02:25.008Z,1.13
2022-09-02T10:05:10.076Z,1.13
2022-09-02T10:07:40.657Z,1.10
2022-09-02T10:10:22.301Z,1.00
2022-09-02T10:12:52.049Z,0.90
2022-09-02T10:15:38.094Z,0.82
2022-09-02T10:18:23.576Z,1.20
2022-09-02T10:21:29.259Z,0.98
2022-09-02T10:24:13.623Z,1.17
2022-09-02T10:26:52.233Z,1.08
2022-09-02T10:29:37.506Z,0.98
2022-09-02T10:32:13.179Z,1.10
2022-09-02T10:35:08.225Z,0.90
2022-09-02T10:38:13.709Z,1.00
2022-09-02T10:40:47.365Z,1.00
2022-09-02T10:43:43.049Z,1.00
2022-09-02T10:46:12.961Z,0.98
2022-09-02T10:48:39.553Z,0.90
2022-09-02T10:51:39.424Z,0.93
2022-09-02T10:54:36.860Z,1.35
2022-09-02T10:57:19.804Z,1.20
2022-09-02T11:00:07.064Z,0.90
2022-09-02T11:03:10.653Z,0.95
2022-09-02T11:05:53.753Z,1.20
2022-09-02T11:08:50.714Z,1.10
2022-09-02T11:11:24.414Z,1.15
2022-09-02T11:13:56.534Z,1.10
2022-09-02T11:16:33.655Z,1.10
2022-09-02T11:19:28.677Z,1.00
2022-09-02T11:21:59.254Z,1.00
2022-09-02T11:24:31.070Z,1.20
2022-09-02T11:27:26.220Z,1.00
2022-09-02T11:30:05.588Z,1.13
2022-09-02T11:32:47.349Z,1.10
2022-09-02T11:35:27.274Z,0.88
2022-09-02T11:38:31.988Z,0.95
2022-09-02T11:41:35.109Z,1.30
2022-09-02T11:44:40.674Z,0.90
2022-09-02T11:47:29.171Z,1.10
2022-09-02T11:50:22.969Z,0.90
2022-09-02T11:52:50.888Z,1.08
2022-09-02T11:55:23.582Z,1.10
2022-09-02T11:57:54.833Z,1.33
2022-09-02T12:00:36.489Z,1.05
2022-09-02T12:03:28.515Z,1.20
2022-09-02T12:06:19.309Z,1.27
2022-09-02T12:08:48.749Z,1.20
2022-09-02T12:11:48.696Z,0.93
2022-09-02T12:14:21.354Z,1.20
2022-09-02T12:17:03.594Z,1.10
2022-09-02T12:19:42.030Z,0.90
2022-09-02T12:22:17.954Z,0.90
2022-09-02T12:25:05.966Z,1.08
2022-09-02T12:27:36.485Z,0.98
2022-09-02T12:30:10.082Z,0.90
2022-09-02T12:32:51.839Z,1.10
2022-09-02T12:35:40.300Z,0.90
2022-09-02T12:38:10.082Z,0.98
2022-09-02T12:40:42.044Z,1.00
2022-09-02T12:43:49.869Z,0.90
2022-09-02T12:46:24.597Z,0.98
2022-09-02T12:51:54.778Z,0.80
2022-09-02T12:54:35.659Z,0.90
2022-09-02T12:57:03.706Z,1.00
2022-09-02T12:59:34.038Z,0.90
2022-09-02T13:02:30.846Z,1.13
2022-09-02T13:05:16.185Z,1.15
2022-09-02T13:08:02.369Z,0.90
2022-09-02T13:11:07.129Z,0.95
2022-09-02T13:14:26.847Z,1.05
2022-09-02T13:17:09.006Z,0.90
2022-09-02T13:20:09.511Z,0.85
2022-09-02T13:22:53.426Z,0.95
2022-09-02T13:25:41.479Z,0.90
2022-09-02T13:28:33.821Z,1.05
2022-09-02T13:31:14.160Z,0.90
2022-09-02T13:33:42.755Z,1.40
2022-09-02T13:36:10.050Z,1.17
2022-09-02T13:38:38.894Z,0.88
2022-09-02T13:41:05.826Z,1.15
2022-09-02T13:43:32.516Z,0.98
2022-09-02T13:46:01.808Z,1.02
2022-09-02T13:48:32.995Z,0.90
2022-09-02T13:51:11.469Z,1.00
2022-09-02T13:53:53.596Z,0.80
2022-09-02T13:56:30.939Z,1.10
2022-09-02T13:58:57.789Z,1.08
2022-09-02T14:01:29.337Z,1.10
2022-09-02T14:03:59.298Z,1.02
2022-09-02T14:06:30.661Z,0.73
2022-09-02T14:09:01.068Z,1.10
2022-09-02T14:11:30.265Z,0.80
2022-09-02T14:13:57.607Z,0.80
2022-09-02T14:16:33.137Z,0.95
2022-09-02T14:19:07.524Z,0.98
2022-09-02T14:21:36.141Z,0.80
2022-09-02T14:24:03.855Z,0.80
2022-09-02T14:26:41.890Z,1.05
2022-09-02T14:29:12.235Z,0.90
2022-09-02T14:31:38.857Z,0.80
2022-09-02T14:34:38.604Z,0.90
2022-09-02T14:37:20.259Z,0.80
2022-09-02T14:40:10.407Z,0.90
2022-09-02T14:42:57.445Z,0.95
2022-09-02T14:45:32.987Z,0.85
2022-09-02T14:48:09.289Z,1.00
2022-09-02T14:50:36.534Z,0.95
2022-09-02T14:53:08.988Z,0.80
2022-09-02T14:55:52.475Z,0.80
2022-09-02T14:58:21.064Z,0.90
2022-09-02T15:00:56.522Z,1.20
2022-09-02T15:03:23.429Z,0.90
2022-09-02T15:05:50.274Z,1.00
2022-09-02T15:08:16.878Z,0.93
2022-09-02T15:10:45.061Z,0.85
2022-09-02T15:13:29.541Z,0.98
2022-09-02T15:15:57.224Z,0.90
2022-09-02T15:18:24.211Z,1.00
2022-09-02T15:20:51.601Z,0.80
2022-09-02T15:23:18.718Z,0.98
2022-09-02T15:25:45.377Z,1.10
2022-09-02T15:28:12.713Z,0.80
2022-09-02T15:30:39.974Z,0.90
2022-09-02T15:33:08.145Z,0.98
2022-09-02T15:35:43.278Z,0.90
2022-09-02T15:38:09.830Z,0.85
2022-09-02T15:40:36.623Z,1.00
2022-09-02T15:43:03.201Z,0.90
2022-09-02T15:45:31.126Z,0.90
2022-09-02T15:47:59.114Z,0.80
2022-09-02T15:50:27.509Z,0.90
2022-09-02T15:52:55.797Z,0.80
2022-09-02T15:55:26.794Z,1.10
2022-09-02T15:57:56.738Z,1.00
2022-09-02T16:00:24.218Z,0.90
2022-09-02T16:02:55.977Z,0.73
2022-09-02T16:05:24.089Z,1.10
2022-09-02T16:07:52.018Z,1.00
2022-09-02T16:10:18.663Z,0.80
2022-09-02T16:12:45.322Z,0.90
2022-09-02T16:15:11.981Z,0.95
2022-09-02T16:17:38.582Z,0.90
2022-09-02T16:20:05.581Z,1.00
2022-09-02T16:22:32.178Z,0.80
2022-09-02T16:24:58.734Z,0.82
2022-09-02T16:27:43.874Z,1.02
2022-09-02T16:30:10.909Z,1.20
2022-09-02T16:32:37.737Z,1.02
2022-09-02T16:35:04.691Z,1.10
2022-09-02T16:37:31.279Z,1.20
2022-09-02T16:39:57.904Z,1.00
2022-09-02T16:42:24.867Z,0.90
2022-09-02T16:44:51.889Z,0.93
2022-09-02T16:47:18.611Z,1.02
2022-09-02T16:49:46.205Z,0.80
2022-09-02T16:52:12.947Z,0.90
2022-09-02T16:54:40.931Z,1.00
2022-09-02T16:57:08.071Z,0.93
2022-09-02T16:59:34.777Z,1.05
2022-09-02T17:02:01.553Z,0.80
2022-09-02T17:04:29.475Z,0.93
2022-09-02T17:06:56.660Z,0.93
2022-09-02T17:09:23.401Z,1.00
2022-09-02T17:11:50.168Z,1.20
2022-09-02T17:14:21.555Z,0.75
2022-09-02T17:16:50.571Z,0.90
2022-09-02T17:19:21.624Z,0.98
2022-09-02T17:21:53.585Z,1.10
2022-09-02T17:24:25.497Z,0.80
2022-09-02T17:26:55.823Z,0.82
2022-09-02T17:32:11.524Z,1.05
2022-09-02T17:34:38.114Z,1.00
2022-09-02T17:37:05.530Z,1.00
2022-09-02T17:39:34.028Z,1.00
2022-09-02T17:42:01.758Z,0.85
2022-09-02T17:44:38.173Z,1.25
2022-09-02T17:47:20.192Z,1.13
2022-09-02T17:49:47.598Z,1.10
2022-09-02T17:52:17.642Z,0.90
2022-09-02T17:54:45.641Z,1.10
2022-09-02T17:57:24.012Z,1.00
2022-09-02T18:00:09.708Z,1.10
2022-09-02T18:02:36.238Z,1.00
2022-09-02T18:05:29.125Z,1.00
2022-09-02T18:08:08.622Z,1.05
2022-09-02T18:10:36.421Z,1.15
2022-09-02T18:13:05.992Z,1.08
2022-09-02T18:15:45.091Z,0.90
2022-09-02T18:18:15.813Z,1.20
2022-09-02T18:20:45.657Z,1.27
2022-09-02T18:23:37.134Z,1.08
2022-09-02T18:26:45.898Z,1.35
2022-09-02T18:29:39.555Z,1.30
2022-09-02T18:32:27.497Z,1.20
2022-09-02T18:35:03.350Z,1.40
2022-09-02T18:37:37.341Z,1.05
2022-09-02T18:40:33.117Z,1.00
2022-09-02T18:43:05.378Z,1.15
2022-09-02T18:45:35.556Z,1.42
2022-09-02T18:48:35.894Z,1.00
2022-09-02T18:51:24.976Z,1.00
2022-09-02T18:54:00.447Z,1.10
2022-09-02T18:56:33.410Z,1.20
2022-09-02T18:59:11.223Z,1.30
2022-09-02T19:01:46.045Z,1.40
2022-09-02T19:04:14.686Z,1.42
2022-09-02T19:06:41.661Z,1.20
2022-09-02T19:09:13.153Z,1.50
2022-09-02T19:11:40.464Z,1.63
2022-09-02T19:14:29.088Z,1.80
2022-09-02T19:16:58.190Z,1.90
2022-09-02T19:19:27.402Z,1.75
2022-09-02T19:22:10.278Z,1.50
2022-09-02T19:24:42.527Z,1.70
2022-09-02T19:27:13.312Z,1.33
2022-09-02T19:29:43.706Z,1.30
2022-09-02T19:32:12.454Z,1.60
2022-09-02T19:34:42.066Z,1.50
2022-09-02T19:37:11.609Z,1.30
2022-09-02T19:39:38.524Z,1.27
2022-09-02T19:42:06.481Z,1.48
2022-09-02T19:44:33.197Z,1.20
2022-09-02T19:49:46.709Z,1.67
2022-09-02T19:52:13.988Z,1.65
2022-09-02T19:54:41.581Z,1.50
2022-09-02T19:57:08.267Z,1.33
2022-09-02T19:59:34.975Z,1.20
2022-09-02T20:02:04.348Z,1.20
2022-09-02T20:04:33.098Z,1.30
2022-09-02T20:07:00.301Z,1.17
2022-09-02T20:09:29.097Z,1.27
2022-09-02T20:11:56.665Z,1.40
2022-09-02T20:14:23.582Z,1.23
2022-09-02T20:16:57.005Z,1.17
2022-09-02T20:19:23.753Z,1.88
2022-09-02T20:21:53.546Z,1.95
2022-09-02T20:24:31.356Z,2.58
2022-09-02T20:27:24.932Z,2.13
2022-09-02T20:30:09.014Z,2.30
2022-09-02T20:32:43.722Z,3.65
2022-09-02T20:35:24.445Z,2.95
2022-09-02T20:37:57.102Z,2.58
2022-09-02T20:40:56.219Z,1.67
2022-09-02T20:43:56.693Z,1.55
2022-09-02T20:46:56.895Z,1.40
2022-09-02T20:49:42.920Z,1.98
2022-09-02T20:52:25.845Z,1.33
2022-09-02T20:55:08.315Z,1.60
2022-09-02T20:57:40.902Z,1.83
2022-09-02T21:00:12.031Z,1.55
2022-09-02T21:02:58.768Z,1.40
2022-09-02T21:05:52.248Z,1.60
2022-09-02T21:08:56.928Z,1.52
2022-09-02T21:11:29.230Z,1.30
2022-09-02T21:14:05.412Z,1.38
2022-09-02T21:16:38.626Z,1.20
2022-09-02T21:19:27.759Z,1.50
2022-09-02T21:22:06.097Z,1.23
2022-09-02T21:24:36.355Z,1.25
2022-09-02T21:27:17.929Z,1.25
2022-09-02T21:29:55.468Z,1.38
2022-09-02T21:32:41.034Z,1.10
2022-09-02T21:35:15.111Z,1.30
2022-09-02T21:37:44.414Z,1.23
2022-09-02T21:40:15.922Z,1.27
2022-09-02T21:43:13.011Z,1.10
2022-09-02T21:45:57.650Z,1.48
2022-09-02T21:49:01.295Z,1.30
2022-09-02T21:51:41.747Z,1.00
2022-09-02T21:54:25.164Z,1.42
2022-09-02T21:57:35.071Z,1.27
2022-09-02T22:00:04.746Z,1.40
2022-09-02T22:02:52.461Z,1.38
2022-09-02T22:05:35.334Z,1.33
2022-09-02T22:08:19.808Z,1.38
2022-09-02T22:11:00.761Z,1.08
2022-09-02T22:13:30.999Z,1.20
2022-09-02T22:16:25.343Z,1.20
2022-09-02T22:19:11.165Z,1.63
2022-09-02T22:21:51.122Z,1.02
2022-09-02T22:24:28.424Z,1.33
2022-09-02T22:27:23.141Z,1.00
2022-09-02T22:30:10.131Z,1.00
2022-09-02T22:32:47.029Z,1.00
2022-09-02T22:35:34.026Z,1.30
2022-09-02T22:38:34.669Z,1.00
2022-09-02T22:41:25.083Z,1.30
2022-09-02T22:44:11.402Z,1.02
2022-09-02T22:47:18.421Z,1.00
2022-09-02T22:50:14.651Z,0.98
2022-09-02T22:52:46.255Z,1.20
2022-09-02T22:55:38.090Z,1.00
2022-09-02T22:58:28.853Z,0.93
2022-09-02T23:01:27.053Z,1.10
2022-09-02T23:04:28.978Z,1.15
2022-09-02T23:06:56.846Z,1.02
2022-09-02T23:09:23.604Z,1.17
2022-09-02T23:12:24.985Z,1.00
2022-09-02T23:15:10.130Z,1.40
2022-09-02T23:18:12.613Z,1.10
2022-09-02T23:20:55.431Z,1.00
2022-09-02T23:23:22.719Z,1.02
2022-09-02T23:26:08.227Z,1.08
2022-09-02T23:29:01.207Z,1.17
2022-09-02T23:31:45.115Z,1.15
2022-09-02T23:34:28.341Z,1.05
2022-09-02T23:37:04.512Z,1.75
2022-09-02T23:40:01.415Z,1.20
2022-09-02T23:42:29.374Z,1.13
2022-09-02T23:45:03.802Z,1.10
2022-09-02T23:48:07.312Z,1.40
2022-09-02T23:50:46.947Z,1.40
2022-09-02T23:53:50.742Z,1.30
2022-09-02T23:56:20.136Z,1.20
2022-09-02T23:59:05.122Z,1.23
